createdAt,value
2023-03-15T00:01:49.343Z,1.20
2023-03-15T00:04:16.146Z,2.08
2023-03-15T00:06:42.858Z,1.55
2023-03-15T00:09:10.085Z,1.45
2023-03-15T00:11:36.865Z,2.65
2023-03-15T00:14:03.817Z,1.67
2023-03-15T00:16:32.902Z,1.65
2023-03-15T00:19:00.173Z,1.20
2023-03-15T00:21:29.827Z,2.45
2023-03-15T00:23:56.939Z,1.10
2023-03-15T00:26:23.698Z,1.40
2023-03-15T00:28:50.508Z,2.00
2023-03-15T00:31:23.086Z,1.30
2023-03-15T00:33:53.725Z,1.38
2023-03-15T00:36:24.222Z,1.40
2023-03-15T00:38:53.385Z,1.35
2023-03-15T00:41:21.356Z,1.00
2023-03-15T00:43:48.446Z,1.90
2023-03-15T00:46:15.977Z,2.08
2023-03-15T00:48:43.052Z,1.67
2023-03-15T00:51:14.936Z,1.98
2023-03-15T00:53:43.712Z,1.90
2023-03-15T00:56:13.990Z,2.40
2023-03-15T00:58:41.343Z,1.60
2023-03-15T01:01:13.193Z,1.50
2023-03-15T01:03:40.880Z,1.40
2023-03-15T01:06:16.659Z,2.22
2023-03-15T01:08:44.389Z,1.73
2023-03-15T01:11:17.555Z,2.78
2023-03-15T01:13:44.745Z,2.67
2023-03-15T01:16:13.814Z,1.80
2023-03-15T01:18:41.473Z,1.83
2023-03-15T01:21:10.329Z,2.92
2023-03-15T01:23:37.222Z,2.28
2023-03-15T01:26:06.497Z,2.03
2023-03-15T01:28:33.554Z,1.63
2023-03-15T01:31:00.515Z,1.60
2023-03-15T01:33:27.824Z,1.88
2023-03-15T01:36:05.410Z,1.92
2023-03-15T01:38:33.001Z,2.25
2023-03-15T01:41:00.047Z,2.40
2023-03-15T01:43:28.685Z,3.45
2023-03-15T01:46:19.712Z,2.83
2023-03-15T01:48:49.307Z,3.70
2023-03-15T01:51:16.222Z,2.20
2023-03-15T01:53:46.811Z,1.92
2023-03-15T01:56:14.386Z,1.52
2023-03-15T01:58:44.424Z,4.22
2023-03-15T02:01:11.575Z,3.47
2023-03-15T02:03:47.183Z,2.45
2023-03-15T02:06:21.504Z,4.40
2023-03-15T02:08:59.428Z,1.40
2023-03-15T02:11:27.670Z,1.70
2023-03-15T02:13:56.440Z,1.45
2023-03-15T02:16:25.061Z,2.25
2023-03-15T02:18:51.937Z,2.65
2023-03-15T02:21:18.797Z,2.35
2023-03-15T02:23:50.158Z,1.85
2023-03-15T02:26:33.774Z,1.98
2023-03-15T02:29:01.307Z,2.95
2023-03-15T02:31:28.992Z,5.97
2023-03-15T02:33:55.820Z,2.35
2023-03-15T02:36:27.074Z,1.55
2023-03-15T02:38:55.245Z,5.65
2023-03-15T02:41:27.659Z,3.25
2023-03-15T02:43:58.959Z,2.40
2023-03-15T02:46:25.946Z,2.80
2023-03-15T02:48:54.477Z,1.92
2023-03-15T02:51:24.679Z,1.65
2023-03-15T02:53:51.467Z,1.25
2023-03-15T02:56:18.242Z,2.10
2023-03-15T02:58:45.808Z,1.80
2023-03-15T03:01:14.319Z,1.70
2023-03-15T03:03:42.204Z,1.50
2023-03-15T03:06:09.863Z,1.52
2023-03-15T03:08:37.366Z,2.67
2023-03-15T03:11:04.796Z,1.73
2023-03-15T03:13:31.527Z,3.08
2023-03-15T03:16:01.361Z,1.70
2023-03-15T03:18:29.274Z,1.50
2023-03-15T03:20:57.553Z,2.17
2023-03-15T03:23:27.331Z,2.95
2023-03-15T03:25:55.039Z,1.48
2023-03-15T03:28:24.169Z,1.88
2023-03-15T03:30:52.713Z,1.63
2023-03-15T03:33:21.224Z,3.15
2023-03-15T03:35:48.688Z,2.85
2023-03-15T03:38:15.992Z,3.55
2023-03-15T03:40:43.100Z,1.65
2023-03-15T03:43:10.015Z,1.50
2023-03-15T03:45:36.977Z,1.70
2023-03-15T03:48:03.923Z,3.25
2023-03-15T03:50:31.853Z,2.85
2023-03-15T03:52:58.678Z,1.83
2023-03-15T03:55:25.649Z,1.88
2023-03-15T03:57:53.169Z,2.85
2023-03-15T04:00:20.454Z,2.78
2023-03-15T04:02:47.582Z,2.65
2023-03-15T04:05:14.489Z,2.22
2023-03-15T04:07:41.582Z,3.13
2023-03-15T04:10:09.150Z,3.45
2023-03-15T04:12:35.998Z,6.00
2023-03-15T04:15:03.494Z,6.70
2023-03-15T04:17:30.478Z,4.28
2023-03-15T04:19:58.134Z,3.38
2023-03-15T04:22:24.985Z,2.60
2023-03-15T04:24:51.740Z,2.83
2023-03-15T04:27:18.572Z,3.42
2023-03-15T04:29:45.423Z,2.25
2023-03-15T04:32:12.295Z,2.55
2023-03-15T04:34:39.175Z,5.10
2023-03-15T04:37:06.776Z,2.10
2023-03-15T04:39:33.561Z,8.00
2023-03-15T04:42:00.382Z,3.83
2023-03-15T04:44:27.306Z,3.00
2023-03-15T04:46:55.260Z,4.00
2023-03-15T04:49:22.142Z,3.58
2023-03-15T04:51:48.914Z,4.55
2023-03-15T04:54:15.778Z,2.42
2023-03-15T04:56:42.533Z,3.42
2023-03-15T04:59:11.156Z,4.80
2023-03-15T05:01:37.965Z,4.22
2023-03-15T05:04:04.841Z,2.33
2023-03-15T05:06:31.587Z,2.83
2023-03-15T05:08:58.392Z,4.13
2023-03-15T05:11:25.276Z,2.90
2023-03-15T05:13:52.086Z,3.50
2023-03-15T05:16:18.975Z,3.08
2023-03-15T05:18:45.785Z,5.00
2023-03-15T05:21:13.396Z,2.42
2023-03-15T05:23:40.352Z,3.70
2023-03-15T05:26:07.157Z,3.42
2023-03-15T05:28:34.040Z,4.22
2023-03-15T05:31:02.574Z,9.00
2023-03-15T05:33:29.724Z,7.75
2023-03-15T05:35:56.660Z,4.85
2023-03-15T05:38:26.646Z,3.92
2023-03-15T05:40:54.627Z,4.93
2023-03-15T05:43:22.119Z,4.70
2023-03-15T05:45:48.972Z,5.32
2023-03-15T05:48:16.835Z,7.20
2023-03-15T05:50:43.660Z,7.70
2023-03-15T05:53:10.701Z,9.02
2023-03-15T05:55:37.579Z,8.00
2023-03-15T05:58:05.097Z,6.50
2023-03-15T06:00:32.367Z,12.02
2023-03-15T06:02:59.490Z,7.97
2023-03-15T06:05:27.044Z,10.18
2023-03-15T06:07:53.810Z,8.73
2023-03-15T06:10:20.548Z,5.60
2023-03-15T06:12:47.342Z,10.98
2023-03-15T06:15:14.099Z,7.47
2023-03-15T06:17:40.841Z,7.93
2023-03-15T06:20:07.963Z,7.95
2023-03-15T06:22:34.869Z,29.98
2023-03-15T06:25:03.495Z,23.52
2023-03-15T06:27:30.422Z,29.85
2023-03-15T06:29:57.551Z,16.13
2023-03-15T06:32:24.444Z,9.75
2023-03-15T06:34:51.916Z,8.65
2023-03-15T06:37:25.805Z,14.13
2023-03-15T06:40:01.251Z,10.23
2023-03-15T06:42:27.983Z,10.27
2023-03-15T06:44:54.737Z,12.40
2023-03-15T06:47:21.654Z,12.88
2023-03-15T06:49:50.441Z,11.35
2023-03-15T06:52:17.730Z,10.90
2023-03-15T06:54:44.633Z,8.55
2023-03-15T06:57:11.576Z,13.65
2023-03-15T06:59:38.362Z,12.70
2023-03-15T07:02:05.272Z,9.50
2023-03-15T07:04:32.053Z,10.07
2023-03-15T07:06:58.767Z,9.02
2023-03-15T07:09:25.585Z,10.65
2023-03-15T07:11:52.321Z,14.70
2023-03-15T07:14:19.069Z,10.38
2023-03-15T07:16:47.877Z,9.07
2023-03-15T07:19:14.626Z,10.75
2023-03-15T07:21:41.460Z,8.93
2023-03-15T07:24:08.332Z,11.73
2023-03-15T07:26:35.135Z,9.57
2023-03-15T07:29:01.889Z,8.90
2023-03-15T07:31:28.633Z,7.05
2023-03-15T07:33:55.352Z,12.93
2023-03-15T07:36:22.344Z,11.10
2023-03-15T07:38:49.136Z,10.02
2023-03-15T07:41:16.727Z,14.07
2023-03-15T07:43:43.846Z,9.77
2023-03-15T07:46:11.099Z,31.27
2023-03-15T07:48:37.956Z,9.77
2023-03-15T07:51:05.190Z,10.07
2023-03-15T07:53:32.062Z,6.72
2023-03-15T07:55:58.935Z,7.55
2023-03-15T07:58:25.722Z,7.50
2023-03-15T08:00:55.514Z,19.40
2023-03-15T08:03:24.164Z,18.35
2023-03-15T08:05:51.459Z,7.05
2023-03-15T08:08:18.245Z,12.98
2023-03-15T08:10:45.671Z,8.50
2023-03-15T08:13:13.432Z,9.05
2023-03-15T08:15:40.996Z,10.02
2023-03-15T08:18:07.736Z,5.15
2023-03-15T08:20:34.563Z,8.68
2023-03-15T08:23:01.814Z,9.60
2023-03-15T08:25:29.318Z,8.32
2023-03-15T08:27:56.017Z,6.10
2023-03-15T08:30:23.879Z,7.05
2023-03-15T08:32:52.630Z,5.28
2023-03-15T08:35:21.699Z,4.78
2023-03-15T08:37:48.765Z,8.90
2023-03-15T08:40:19.090Z,7.33
2023-03-15T08:42:45.984Z,12.33
2023-03-15T08:45:12.778Z,4.35
2023-03-15T08:47:39.625Z,6.45
2023-03-15T08:50:10.984Z,4.50
2023-03-15T08:52:38.290Z,7.03
2023-03-15T08:55:05.862Z,6.40
2023-03-15T08:57:35.375Z,6.43
2023-03-15T09:00:09.256Z,14.20
2023-03-15T09:02:37.313Z,4.30
2023-03-15T09:05:07.139Z,11.80
2023-03-15T09:07:34.402Z,3.83
2023-03-15T09:10:03.447Z,5.23
2023-03-15T09:12:31.615Z,6.80
2023-03-15T09:14:58.363Z,3.50
2023-03-15T09:17:25.131Z,9.20
2023-03-15T09:19:52.605Z,6.57
2023-03-15T09:22:34.746Z,3.57
2023-03-15T09:25:05.343Z,7.83
2023-03-15T09:27:32.481Z,7.27
2023-03-15T09:29:59.370Z,6.07
2023-03-15T09:32:26.330Z,10.00
2023-03-15T09:34:53.160Z,7.40
2023-03-15T09:37:21.890Z,4.50
2023-03-15T09:39:48.942Z,5.60
2023-03-15T09:43:03.504Z,1.77
2023-03-15T09:45:52.030Z,8.80
2023-03-15T09:48:24.682Z,10.43
2023-03-15T09:50:57.375Z,8.53
2023-03-15T09:53:41.546Z,3.80
2023-03-15T09:56:19.069Z,5.30
2023-03-15T09:58:47.239Z,7.37
2023-03-15T10:01:16.408Z,2.67
2023-03-15T10:03:49.058Z,3.43
2023-03-15T10:06:26.615Z,6.33
2023-03-15T10:09:01.900Z,4.10
2023-03-15T10:11:47.626Z,4.20
2023-03-15T10:14:33.933Z,2.53
2023-03-15T10:17:12.143Z,6.87
2023-03-15T10:19:54.886Z,3.43
2023-03-15T10:22:30.049Z,3.00
2023-03-15T10:25:05.127Z,3.63
2023-03-15T10:27:41.547Z,2.17
2023-03-15T10:30:23.588Z,8.43
2023-03-15T10:33:14.352Z,5.23
2023-03-15T10:35:43.101Z,4.30
2023-03-15T10:38:20.953Z,2.80
2023-03-15T10:40:52.014Z,6.63
2023-03-15T10:43:30.106Z,2.20
2023-03-15T10:46:06.215Z,4.00
2023-03-15T10:48:38.908Z,1.50
2023-03-15T10:51:25.578Z,1.80
2023-03-15T10:53:59.076Z,6.93
2023-03-15T10:56:28.906Z,4.80
2023-03-15T10:59:11.477Z,4.53
2023-03-15T11:01:38.957Z,3.23
2023-03-15T11:04:22.556Z,2.87
2023-03-15T11:06:59.134Z,2.20
2023-03-15T11:09:28.627Z,2.63
2023-03-15T11:12:00.946Z,2.40
2023-03-15T11:14:39.273Z,3.57
2023-03-15T11:17:09.121Z,3.03
2023-03-15T11:19:51.616Z,1.60
2023-03-15T11:22:18.355Z,1.10
2023-03-15T11:24:45.178Z,3.70
2023-03-15T11:27:15.042Z,8.40
2023-03-15T11:29:48.757Z,4.40
2023-03-15T11:32:21.445Z,3.00
2023-03-15T11:35:16.225Z,4.60
2023-03-15T11:37:51.150Z,2.10
2023-03-15T11:40:30.067Z,4.50
2023-03-15T11:43:02.918Z,5.73
2023-03-15T11:45:40.562Z,7.37
2023-03-15T11:48:51.208Z,3.13
2023-03-15T11:51:18.087Z,3.60
2023-03-15T11:54:11.172Z,3.83
2023-03-15T11:56:43.893Z,1.63
2023-03-15T11:59:14.476Z,4.70
2023-03-15T12:02:10.652Z,3.63
2023-03-15T12:05:17.711Z,3.33
2023-03-15T12:07:59.469Z,2.50
2023-03-15T12:10:34.410Z,3.50
2023-03-15T12:13:16.491Z,3.27
2023-03-15T12:15:45.832Z,4.23
2023-03-15T12:18:16.685Z,9.20
2023-03-15T12:20:50.477Z,5.90
2023-03-15T12:23:17.157Z,3.13
2023-03-15T12:26:01.901Z,1.40
2023-03-15T12:28:40.463Z,2.70
2023-03-15T12:31:14.499Z,2.03
2023-03-15T12:33:58.375Z,1.87
2023-03-15T12:36:41.051Z,1.17
2023-03-15T12:39:16.856Z,1.87
2023-03-15T12:41:49.503Z,4.87
2023-03-15T12:44:31.880Z,2.50
2023-03-15T12:47:00.783Z,1.83
2023-03-15T12:49:27.458Z,4.03
2023-03-15T12:52:01.259Z,4.00
2023-03-15T12:54:39.510Z,5.70
2023-03-15T12:57:06.690Z,6.20
2023-03-15T12:59:46.396Z,4.37
2023-03-15T13:02:42.104Z,1.63
2023-03-15T13:05:10.389Z,3.90
2023-03-15T13:08:17.651Z,1.40
2023-03-15T13:11:18.100Z,2.30
2023-03-15T13:14:05.478Z,2.77
2023-03-15T13:17:07.438Z,1.93
2023-03-15T13:19:41.865Z,2.20
2023-03-15T13:22:24.342Z,3.40
2023-03-15T13:24:52.378Z,2.23
2023-03-15T13:27:25.073Z,1.90
2023-03-15T13:29:51.931Z,2.67
2023-03-15T13:32:22.355Z,1.87
2023-03-15T13:34:49.907Z,1.27
2023-03-15T13:37:21.760Z,2.30
2023-03-15T13:40:03.558Z,4.53
2023-03-15T13:42:30.506Z,2.10
2023-03-15T13:45:06.506Z,0.80
2023-03-15T13:47:34.831Z,1.17
2023-03-15T13:50:06.276Z,6.00
2023-03-15T13:52:33.209Z,2.20
2023-03-15T13:55:02.157Z,2.27
2023-03-15T13:57:29.807Z,1.60
2023-03-15T14:00:19.111Z,1.67
2023-03-15T14:02:55.173Z,2.73
2023-03-15T14:05:31.330Z,1.60
2023-03-15T14:08:06.405Z,1.40
2023-03-15T14:10:36.071Z,1.13
2023-03-15T14:13:32.191Z,2.77
2023-03-15T14:16:07.720Z,1.43
2023-03-15T14:18:40.655Z,1.27
2023-03-15T14:21:14.450Z,1.90
2023-03-15T14:23:44.055Z,2.20
2023-03-15T14:26:13.794Z,0.83
2023-03-15T14:28:41.773Z,3.17
2023-03-15T14:31:08.719Z,3.00
2023-03-15T14:33:42.417Z,0.70
2023-03-15T14:36:28.625Z,1.10
2023-03-15T14:38:58.591Z,3.20
2023-03-15T14:41:33.209Z,0.80
2023-03-15T14:44:03.302Z,2.83
2023-03-15T14:46:33.319Z,1.00
2023-03-15T14:49:00.896Z,1.77
2023-03-15T14:51:28.576Z,9.13
2023-03-15T14:53:59.459Z,3.40
2023-03-15T14:56:26.716Z,1.97
2023-03-15T14:58:56.416Z,2.63
2023-03-15T15:01:26.442Z,0.80
2023-03-15T15:03:58.359Z,3.60
2023-03-15T15:06:27.012Z,3.50
2023-03-15T15:08:56.600Z,1.43
2023-03-15T15:11:23.324Z,2.80
2023-03-15T15:13:50.268Z,1.90
2023-03-15T15:16:17.080Z,1.00
2023-03-15T15:18:43.914Z,2.40
2023-03-15T15:21:23.618Z,1.57
2023-03-15T15:23:58.390Z,7.07
2023-03-15T15:26:28.201Z,2.83
2023-03-15T15:28:56.621Z,6.20
2023-03-15T15:31:25.480Z,3.50
2023-03-15T15:33:53.932Z,3.93
2023-03-15T15:36:44.334Z,4.97
2023-03-15T15:39:23.583Z,3.77
2023-03-15T15:41:50.735Z,4.73
2023-03-15T15:44:20.185Z,4.55
2023-03-15T15:46:46.949Z,8.52
2023-03-15T15:49:13.752Z,3.83
2023-03-15T15:51:46.571Z,5.32
2023-03-15T15:54:24.776Z,3.53
2023-03-15T15:56:59.750Z,3.20
2023-03-15T15:59:27.214Z,4.65
2023-03-15T16:02:03.099Z,4.97
2023-03-15T16:04:30.541Z,2.95
2023-03-15T16:07:01.659Z,4.15
2023-03-15T16:09:30.377Z,4.72
2023-03-15T16:11:57.394Z,7.00
2023-03-15T16:14:24.136Z,4.93
2023-03-15T16:16:50.920Z,7.13
2023-03-15T16:19:17.665Z,3.70
2023-03-15T16:21:47.789Z,4.50
2023-03-15T16:24:25.821Z,3.20
2023-03-15T16:26:58.324Z,6.68
2023-03-15T16:29:35.305Z,5.65
2023-03-15T16:32:15.951Z,9.45
2023-03-15T16:34:47.142Z,3.60
2023-03-15T16:37:15.868Z,4.70
2023-03-15T16:39:45.397Z,4.90
2023-03-15T16:42:13.523Z,5.82
2023-03-15T16:44:40.979Z,6.15
2023-03-15T16:47:08.513Z,1.90
2023-03-15T16:49:35.384Z,16.42
2023-03-15T16:52:04.768Z,2.42
2023-03-15T16:54:41.042Z,5.03
2023-03-15T16:57:21.940Z,5.93
2023-03-15T16:59:49.371Z,5.28
2023-03-15T17:02:25.233Z,2.30
2023-03-15T17:04:55.117Z,4.57
2023-03-15T17:07:32.674Z,4.10
2023-03-15T17:10:05.452Z,7.70
2023-03-15T17:12:32.354Z,3.63
2023-03-15T17:15:00.002Z,3.10
2023-03-15T17:17:28.886Z,4.13
2023-03-15T17:19:56.140Z,3.03
2023-03-15T17:22:23.228Z,2.83
2023-03-15T17:24:50.260Z,2.13
2023-03-15T17:27:24.906Z,3.03
2023-03-15T17:29:51.679Z,4.13
2023-03-15T17:32:18.451Z,4.28
2023-03-15T17:34:47.196Z,3.65
2023-03-15T17:37:15.615Z,1.65
2023-03-15T17:39:44.832Z,4.22
2023-03-15T17:42:13.761Z,1.85
2023-03-15T17:44:41.523Z,6.70
2023-03-15T17:47:11.820Z,3.05
2023-03-15T17:49:39.022Z,7.97
2023-03-15T17:52:13.197Z,11.75
2023-03-15T17:54:40.145Z,5.07
2023-03-15T17:57:07.038Z,3.28
2023-03-15T17:59:33.822Z,4.28
2023-03-15T18:02:00.634Z,4.90
2023-03-15T18:04:27.521Z,5.63
2023-03-15T18:06:55.474Z,22.35
2023-03-15T18:09:23.855Z,3.05
2023-03-15T18:11:50.964Z,2.67
2023-03-15T18:14:18.899Z,3.05
2023-03-15T18:16:45.777Z,3.05
2023-03-15T18:19:12.563Z,4.38
2023-03-15T18:21:39.371Z,2.30
2023-03-15T18:24:06.391Z,5.15
2023-03-15T18:26:33.277Z,2.03
2023-03-15T18:29:00.073Z,2.78
2023-03-15T18:31:26.852Z,4.03
2023-03-15T18:33:54.325Z,1.63
2023-03-15T18:36:21.197Z,3.20
2023-03-15T18:38:48.420Z,2.45
2023-03-15T18:41:25.067Z,2.85
2023-03-15T18:43:52.286Z,2.70
2023-03-15T18:46:21.297Z,2.92
2023-03-15T18:48:49.696Z,2.08
2023-03-15T18:51:20.059Z,2.95
2023-03-15T18:53:46.762Z,3.83
2023-03-15T18:56:21.837Z,3.63
2023-03-15T18:58:50.042Z,2.90
2023-03-15T19:01:17.823Z,4.07
2023-03-15T19:03:45.123Z,2.40
2023-03-15T19:06:13.393Z,2.60
2023-03-15T19:08:40.624Z,2.92
2023-03-15T19:11:08.479Z,2.05
2023-03-15T19:13:35.543Z,4.25
2023-03-15T19:16:03.173Z,4.15
2023-03-15T19:18:32.381Z,2.20
2023-03-15T19:20:59.425Z,1.83
2023-03-15T19:23:26.471Z,2.40
2023-03-15T19:25:53.234Z,2.47
2023-03-15T19:28:19.983Z,4.28
2023-03-15T19:30:46.945Z,4.00
2023-03-15T19:33:13.732Z,4.43
2023-03-15T19:35:40.569Z,4.00
2023-03-15T19:38:07.373Z,5.25
2023-03-15T19:40:34.201Z,3.17
2023-03-15T19:43:00.988Z,2.95
2023-03-15T19:45:27.980Z,3.40
2023-03-15T19:47:54.768Z,9.63
2023-03-15T19:50:21.574Z,4.07
2023-03-15T19:52:48.363Z,8.60
2023-03-15T19:55:20.261Z,4.20
2023-03-15T19:57:47.644Z,7.32
2023-03-15T20:00:16.647Z,4.72
2023-03-15T20:02:44.501Z,4.50
2023-03-15T20:05:13.428Z,3.15
2023-03-15T20:07:40.339Z,3.47
2023-03-15T20:10:14.044Z,5.82
2023-03-15T20:12:45.568Z,6.00
2023-03-15T20:15:14.405Z,3.78
2023-03-15T20:17:41.502Z,2.92
2023-03-15T20:20:10.809Z,8.18
2023-03-15T20:22:41.378Z,2.60
2023-03-15T20:25:09.962Z,3.40
2023-03-15T20:27:37.417Z,4.20
2023-03-15T20:30:06.106Z,3.03
2023-03-15T20:32:32.938Z,3.42
2023-03-15T20:35:01.172Z,2.65
2023-03-15T20:37:30.171Z,3.33
2023-03-15T20:39:57.014Z,3.08
2023-03-15T20:42:25.006Z,3.50
2023-03-15T20:44:52.699Z,5.75
2023-03-15T20:47:19.819Z,3.80
2023-03-15T20:49:46.543Z,3.63
2023-03-15T20:52:13.309Z,4.32
2023-03-15T20:54:40.147Z,4.75
2023-03-15T20:57:07.168Z,7.30
2023-03-15T20:59:34.002Z,6.15
2023-03-15T21:02:02.756Z,3.13
2023-03-15T21:04:29.711Z,4.22
2023-03-15T21:06:56.785Z,6.13
2023-03-15T21:09:23.550Z,4.88
2023-03-15T21:11:50.492Z,4.90
2023-03-15T21:14:17.289Z,7.10
2023-03-15T21:16:44.035Z,6.97
2023-03-15T21:19:10.801Z,5.20
2023-03-15T21:21:37.542Z,6.10
2023-03-15T21:24:06.359Z,4.97
2023-03-15T21:26:33.152Z,5.70
2023-03-15T21:29:00.142Z,5.18
2023-03-15T21:31:27.073Z,8.10
2023-03-15T21:33:53.779Z,5.72
2023-03-15T21:36:20.602Z,4.70
2023-03-15T21:38:47.352Z,10.98
2023-03-15T21:41:14.191Z,7.32
2023-03-15T21:43:41.142Z,8.00
2023-03-15T21:46:11.892Z,9.32
2023-03-15T21:48:38.953Z,5.22
2023-03-15T21:51:06.803Z,5.55
2023-03-15T21:53:34.430Z,7.38
2023-03-15T21:56:02.062Z,6.53
2023-03-15T21:58:29.327Z,6.00
2023-03-15T22:01:00.320Z,5.38
2023-03-15T22:03:27.910Z,6.65
2023-03-15T22:05:54.818Z,6.50
2023-03-15T22:08:21.634Z,9.35
2023-03-15T22:10:52.553Z,9.30
2023-03-15T22:13:19.263Z,6.82
2023-03-15T22:15:46.047Z,6.93
2023-03-15T22:18:12.852Z,5.85
2023-03-15T22:20:39.616Z,9.40
2023-03-15T22:23:06.491Z,6.28
2023-03-15T22:25:33.857Z,6.63
2023-03-15T22:28:01.977Z,7.55
2023-03-15T22:30:28.823Z,7.53
2023-03-15T22:32:55.643Z,10.95
2023-03-15T22:35:22.795Z,20.85
2023-03-15T22:37:49.664Z,8.07
2023-03-15T22:40:16.575Z,8.50
2023-03-15T22:42:44.207Z,9.70
2023-03-15T22:45:11.205Z,7.65
2023-03-15T22:47:40.774Z,6.55
2023-03-15T22:50:07.970Z,9.90
2023-03-15T22:52:34.701Z,11.18
2023-03-15T22:55:01.485Z,10.48
2023-03-15T22:57:28.338Z,9.27
2023-03-15T22:59:55.068Z,8.00
2023-03-15T23:02:21.877Z,9.98
2023-03-15T23:04:48.852Z,7.90
2023-03-15T23:07:15.711Z,7.32
2023-03-15T23:09:42.670Z,8.40
2023-03-15T23:12:10.011Z,9.50
2023-03-15T23:14:36.852Z,11.25
2023-03-15T23:17:04.591Z,8.13
2023-03-15T23:19:34.147Z,6.85
2023-03-15T23:22:04.723Z,6.35
2023-03-15T23:24:34.002Z,6.15
2023-03-15T23:27:04.507Z,14.25
2023-03-15T23:29:34.147Z,8.68
2023-03-15T23:32:05.225Z,6.43
2023-03-15T23:34:31.930Z,6.53
2023-03-15T23:36:58.667Z,8.68
2023-03-15T23:39:25.508Z,6.55
2023-03-15T23:41:52.263Z,8.82
2023-03-15T23:44:19.039Z,6.63
2023-03-15T23:46:45.921Z,11.18
2023-03-15T23:49:12.904Z,8.95
2023-03-15T23:51:39.806Z,5.80
2023-03-15T23:54:06.526Z,6.28
2023-03-15T23:56:33.698Z,8.10
2023-03-15T23:59:00.664Z,10.80
